createdAt,value
2024-01-29T00:00:04.946Z,15.27
2024-01-29T00:02:33.400Z,14.48
2024-01-29T00:05:00.173Z,13.82
2024-01-29T00:07:26.992Z,14.68
2024-01-29T00:09:53.898Z,13.50
2024-01-29T00:12:20.716Z,15.38
2024-01-29T00:14:47.410Z,13.50
2024-01-29T00:17:14.185Z,13.07
2024-01-29T00:19:41.210Z,12.27
2024-01-29T00:22:08.141Z,11.50
2024-01-29T00:24:34.956Z,11.15
2024-01-29T00:27:01.845Z,10.20
2024-01-29T00:29:28.615Z,9.93
2024-01-29T00:31:55.389Z,9.10
2024-01-29T00:34:23.321Z,9.30
2024-01-29T00:36:50.258Z,8.43
2024-01-29T00:39:17.318Z,8.55
2024-01-29T00:41:44.025Z,9.73
2024-01-29T00:44:10.803Z,11.05
2024-01-29T00:46:40.399Z,10.02
2024-01-29T00:49:08.166Z,8.60
2024-01-29T00:51:35.218Z,9.10
2024-01-29T00:54:02.940Z,9.80
2024-01-29T00:56:29.774Z,10.18
2024-01-29T00:58:56.524Z,9.38
2024-01-29T01:01:23.356Z,9.93
2024-01-29T01:03:50.323Z,9.57
2024-01-29T01:06:17.268Z,10.57
2024-01-29T01:08:44.036Z,9.67
2024-01-29T01:11:10.803Z,9.38
2024-01-29T01:13:37.477Z,9.35
2024-01-29T01:16:04.853Z,9.80
2024-01-29T01:18:31.706Z,9.75
2024-01-29T01:20:58.494Z,10.37
2024-01-29T01:23:25.257Z,10.75
2024-01-29T01:25:51.957Z,11.05
2024-01-29T01:28:18.737Z,11.48
2024-01-29T01:30:45.577Z,11.18
2024-01-29T01:33:12.452Z,12.27
2024-01-29T01:35:39.260Z,11.23
2024-01-29T01:38:06.055Z,11.43
2024-01-29T01:40:32.876Z,12.15
2024-01-29T01:42:59.623Z,11.57
2024-01-29T01:45:26.604Z,11.32
2024-01-29T01:47:53.480Z,12.40
2024-01-29T01:50:20.472Z,11.55
2024-01-29T01:52:49.153Z,11.60
2024-01-29T01:55:16.865Z,13.40
2024-01-29T01:57:44.284Z,11.32
2024-01-29T02:00:12.760Z,11.07
2024-01-29T02:02:39.681Z,11.75
2024-01-29T02:05:07.009Z,12.95
2024-01-29T02:07:34.056Z,12.35
2024-01-29T02:10:00.987Z,12.90
2024-01-29T02:12:27.749Z,13.57
2024-01-29T02:14:54.643Z,12.63
2024-01-29T02:17:21.397Z,12.40
2024-01-29T02:19:48.410Z,12.43
2024-01-29T02:22:15.392Z,11.35
2024-01-29T02:24:42.174Z,12.20
2024-01-29T02:27:08.948Z,11.57
2024-01-29T02:29:35.768Z,11.48
2024-01-29T02:32:02.600Z,10.85
2024-01-29T02:34:29.576Z,11.75
2024-01-29T02:36:56.858Z,11.05
2024-01-29T02:39:24.033Z,10.82
2024-01-29T02:41:50.822Z,12.32
2024-01-29T02:44:17.675Z,11.98
2024-01-29T02:46:44.468Z,13.52
2024-01-29T02:49:11.504Z,11.35
2024-01-29T02:51:38.429Z,13.38
2024-01-29T02:54:05.419Z,12.55
2024-01-29T02:56:32.093Z,13.50
2024-01-29T02:58:58.917Z,13.25
2024-01-29T03:01:25.810Z,12.73
2024-01-29T03:03:52.721Z,12.60
2024-01-29T03:06:19.492Z,14.23
2024-01-29T03:08:47.985Z,12.15
2024-01-29T03:11:15.062Z,12.98
2024-01-29T03:13:41.793Z,13.32
2024-01-29T03:16:08.666Z,15.13
2024-01-29T03:18:35.587Z,14.73
2024-01-29T03:21:03.674Z,13.77
2024-01-29T03:23:30.417Z,13.23
2024-01-29T03:25:57.331Z,13.52
2024-01-29T03:28:24.100Z,12.68
2024-01-29T03:30:50.850Z,13.20
2024-01-29T03:33:18.047Z,12.45
2024-01-29T03:35:44.768Z,11.73
2024-01-29T03:38:11.498Z,11.52
2024-01-29T03:40:38.412Z,12.07
2024-01-29T03:43:05.348Z,11.82
2024-01-29T03:45:32.258Z,10.75
2024-01-29T03:47:58.967Z,11.27
2024-01-29T03:50:26.212Z,9.82
2024-01-29T03:52:52.969Z,9.45
2024-01-29T03:55:19.946Z,8.90
2024-01-29T03:57:46.761Z,9.43
2024-01-29T04:00:13.957Z,10.10
2024-01-29T04:02:40.738Z,8.52
2024-01-29T04:05:09.505Z,8.73
2024-01-29T04:07:36.580Z,8.50
2024-01-29T04:10:03.656Z,9.45
2024-01-29T04:12:30.417Z,8.85
2024-01-29T04:14:57.270Z,8.55
2024-01-29T04:17:24.105Z,7.32
2024-01-29T04:19:51.005Z,7.85
2024-01-29T04:22:18.132Z,7.55
2024-01-29T04:24:44.976Z,7.70
2024-01-29T04:27:11.713Z,7.90
2024-01-29T04:29:39.411Z,8.60
2024-01-29T04:32:06.320Z,8.23
2024-01-29T04:34:33.247Z,8.23
2024-01-29T04:37:00.070Z,8.32
2024-01-29T04:39:26.882Z,7.70
2024-01-29T04:41:54.108Z,8.43
2024-01-29T04:44:20.900Z,7.80
2024-01-29T04:46:47.748Z,6.90
2024-01-29T04:49:17.326Z,7.50
2024-01-29T04:51:44.662Z,7.03
2024-01-29T04:54:11.466Z,7.75
2024-01-29T04:56:38.169Z,7.30
2024-01-29T04:59:05.001Z,7.03
2024-01-29T05:01:31.754Z,7.10
2024-01-29T05:03:58.605Z,6.68
2024-01-29T05:06:25.738Z,7.88
2024-01-29T05:08:52.563Z,7.80
2024-01-29T05:11:19.362Z,7.07
2024-01-29T05:13:46.094Z,7.15
2024-01-29T05:16:13.300Z,7.90
2024-01-29T05:18:40.550Z,7.13
2024-01-29T05:21:07.965Z,7.03
2024-01-29T05:23:35.242Z,7.35
2024-01-29T05:26:02.121Z,8.10
2024-01-29T05:28:28.808Z,7.35
2024-01-29T05:30:55.598Z,7.40
2024-01-29T05:33:25.859Z,7.57
2024-01-29T05:35:54.619Z,6.63
2024-01-29T05:38:21.418Z,8.00
2024-01-29T05:40:48.197Z,7.13
2024-01-29T05:43:15.141Z,9.18
2024-01-29T05:45:42.146Z,9.60
2024-01-29T05:48:10.007Z,8.13
2024-01-29T05:50:36.909Z,7.27
2024-01-29T05:53:04.198Z,7.97
2024-01-29T05:55:31.117Z,9.98
2024-01-29T05:57:57.901Z,8.15
2024-01-29T06:00:25.436Z,8.52
2024-01-29T06:02:52.411Z,6.90
2024-01-29T06:05:19.572Z,7.82
2024-01-29T06:07:46.518Z,14.70
2024-01-29T06:10:15.677Z,12.10
2024-01-29T06:12:43.009Z,12.13
2024-01-29T06:15:10.043Z,17.75
2024-01-29T06:17:37.377Z,13.82
2024-01-29T06:20:16.206Z,17.20
2024-01-29T06:22:45.908Z,10.70
2024-01-29T06:25:12.833Z,9.88
2024-01-29T06:27:40.082Z,9.40
2024-01-29T06:30:07.779Z,11.13
2024-01-29T06:32:34.537Z,28.88
2024-01-29T06:35:01.544Z,21.65
2024-01-29T06:37:29.463Z,25.33
2024-01-29T06:39:56.511Z,10.87
2024-01-29T06:42:24.171Z,12.23
2024-01-29T06:44:51.076Z,12.48
2024-01-29T06:47:19.324Z,12.40
2024-01-29T06:49:46.445Z,12.57
2024-01-29T06:52:17.001Z,11.82
2024-01-29T06:54:45.722Z,14.30
2024-01-29T06:57:12.783Z,13.35
2024-01-29T06:59:39.450Z,12.35
2024-01-29T07:02:07.592Z,10.02
2024-01-29T07:04:34.703Z,11.90
2024-01-29T07:07:02.111Z,10.25
2024-01-29T07:09:30.632Z,13.00
2024-01-29T07:11:57.926Z,8.32
2024-01-29T07:14:26.265Z,11.75
2024-01-29T07:16:53.522Z,9.13
2024-01-29T07:19:27.205Z,9.45
2024-01-29T07:21:55.134Z,10.43
2024-01-29T07:24:22.211Z,10.80
2024-01-29T07:26:49.123Z,11.40
2024-01-29T07:29:16.033Z,10.95
2024-01-29T07:31:42.850Z,10.10
2024-01-29T07:34:09.726Z,10.55
2024-01-29T07:36:39.549Z,11.52
2024-01-29T07:39:06.555Z,12.82
2024-01-29T07:41:33.458Z,11.27
2024-01-29T07:44:00.171Z,9.20
2024-01-29T07:46:27.003Z,8.93
2024-01-29T07:48:53.802Z,8.52
2024-01-29T07:51:20.547Z,8.82
2024-01-29T07:53:47.294Z,7.75
2024-01-29T07:56:14.472Z,8.13
2024-01-29T07:58:41.157Z,9.85
2024-01-29T08:01:08.218Z,9.23
2024-01-29T08:03:35.229Z,8.27
2024-01-29T08:06:03.014Z,9.35
2024-01-29T08:08:30.366Z,10.10
2024-01-29T08:10:59.612Z,11.10
2024-01-29T08:13:26.553Z,10.23
2024-01-29T08:15:53.320Z,10.23
2024-01-29T08:18:20.473Z,9.30
2024-01-29T08:20:47.639Z,9.05
2024-01-29T08:23:14.640Z,10.55
2024-01-29T08:25:41.387Z,9.77
2024-01-29T08:28:08.258Z,9.35
2024-01-29T08:30:35.344Z,9.07
2024-01-29T08:33:02.255Z,9.70
2024-01-29T08:35:29.339Z,9.70
2024-01-29T08:37:56.239Z,10.07
2024-01-29T08:40:23.133Z,8.73
2024-01-29T08:42:49.855Z,9.50
2024-01-29T08:45:19.700Z,8.95
2024-01-29T08:47:46.770Z,10.25
2024-01-29T08:50:13.692Z,11.15
2024-01-29T08:52:40.890Z,10.05
2024-01-29T08:55:10.939Z,8.60
2024-01-29T08:57:37.849Z,8.68
2024-01-29T09:00:05.843Z,8.45
2024-01-29T09:02:33.336Z,8.73
2024-01-29T09:05:00.470Z,9.25
2024-01-29T09:07:27.488Z,9.13
2024-01-29T09:09:54.427Z,9.18
2024-01-29T09:12:21.281Z,8.57
2024-01-29T09:14:48.133Z,8.68
2024-01-29T09:17:14.913Z,9.15
2024-01-29T09:19:41.906Z,8.73
2024-01-29T09:22:08.802Z,12.05
2024-01-29T09:24:35.722Z,12.15
2024-01-29T09:27:02.697Z,9.65
2024-01-29T09:29:29.634Z,9.25
2024-01-29T09:31:59.433Z,8.77
2024-01-29T09:34:28.964Z,9.98
2024-01-29T09:36:56.884Z,10.80
2024-01-29T09:39:26.868Z,8.82
2024-01-29T09:42:00.739Z,9.60
2024-01-29T09:44:29.685Z,10.18
2024-01-29T09:46:57.680Z,9.88
2024-01-29T09:49:25.208Z,9.73
2024-01-29T09:51:53.133Z,9.85
2024-01-29T09:54:20.905Z,9.85
2024-01-29T09:56:48.997Z,12.18
2024-01-29T09:59:15.785Z,11.80
2024-01-29T10:01:43.670Z,9.38
2024-01-29T10:04:10.614Z,9.68
2024-01-29T10:06:37.528Z,9.50
2024-01-29T10:09:05.970Z,10.10
2024-01-29T10:11:33.572Z,9.60
2024-01-29T10:14:00.723Z,9.70
2024-01-29T10:16:28.542Z,8.57
2024-01-29T10:19:02.789Z,9.13
2024-01-29T10:21:33.999Z,8.55
2024-01-29T10:24:00.826Z,9.18
2024-01-29T10:26:28.198Z,7.90
2024-01-29T10:29:02.420Z,7.57
2024-01-29T10:31:29.738Z,8.02
2024-01-29T10:33:57.540Z,7.85
2024-01-29T10:36:24.591Z,6.85
2024-01-29T10:38:53.352Z,8.95
2024-01-29T10:41:23.758Z,8.23
2024-01-29T10:43:52.418Z,9.07
2024-01-29T10:46:23.680Z,10.50
2024-01-29T10:48:53.269Z,9.32
2024-01-29T10:51:22.630Z,8.82
2024-01-29T10:53:49.918Z,9.25
2024-01-29T10:56:17.821Z,8.65
2024-01-29T10:58:47.188Z,9.35
2024-01-29T11:01:14.865Z,7.15
2024-01-29T11:03:43.169Z,8.32
2024-01-29T11:06:10.305Z,9.63
2024-01-29T11:08:41.268Z,8.32
2024-01-29T11:11:11.049Z,8.20
2024-01-29T11:13:38.110Z,9.95
2024-01-29T11:16:07.668Z,10.18
2024-01-29T11:18:35.935Z,9.82
2024-01-29T11:21:03.704Z,8.68
2024-01-29T11:23:31.656Z,7.53
2024-01-29T11:26:01.834Z,8.77
2024-01-29T11:28:28.910Z,8.43
2024-01-29T11:30:55.891Z,9.13
2024-01-29T11:33:23.995Z,8.27
2024-01-29T11:35:54.494Z,8.85
2024-01-29T11:38:24.131Z,7.90
2024-01-29T11:40:51.223Z,8.23
2024-01-29T11:43:19.940Z,5.82
2024-01-29T11:45:50.646Z,6.30
2024-01-29T11:48:20.735Z,5.07
2024-01-29T11:50:50.378Z,6.03
2024-01-29T11:53:19.129Z,5.90
2024-01-29T11:55:49.205Z,6.45
2024-01-29T11:58:20.655Z,7.22
2024-01-29T12:00:49.527Z,5.93
2024-01-29T12:03:19.804Z,7.15
2024-01-29T12:05:47.321Z,6.68
2024-01-29T12:08:18.756Z,6.63
2024-01-29T12:10:47.343Z,7.25
2024-01-29T12:13:19.381Z,6.05
2024-01-29T12:15:47.505Z,6.72
2024-01-29T12:18:25.517Z,7.05
2024-01-29T12:20:53.132Z,7.45
2024-01-29T12:23:23.127Z,6.20
2024-01-29T12:25:59.032Z,9.00
2024-01-29T12:28:27.913Z,7.93
2024-01-29T12:31:02.377Z,9.88
2024-01-29T12:33:33.476Z,10.10
2024-01-29T12:36:15.135Z,11.70
2024-01-29T12:38:43.813Z,9.95
2024-01-29T12:41:10.988Z,7.85
2024-01-29T12:43:39.510Z,7.75
2024-01-29T12:46:10.905Z,7.20
2024-01-29T12:48:38.230Z,7.10
2024-01-29T12:51:06.603Z,7.25
2024-01-29T12:53:33.462Z,7.63
2024-01-29T12:56:00.185Z,7.47
2024-01-29T12:58:27.029Z,8.38
2024-01-29T13:00:54.209Z,7.93
2024-01-29T13:03:21.298Z,9.57
2024-01-29T13:05:48.188Z,11.88
2024-01-29T13:08:15.059Z,8.50
2024-01-29T13:10:43.229Z,9.77
2024-01-29T13:13:10.805Z,11.32
2024-01-29T13:15:38.195Z,8.65
2024-01-29T13:18:05.483Z,7.50
2024-01-29T13:20:33.127Z,7.55
2024-01-29T13:22:59.926Z,6.70
2024-01-29T13:25:26.741Z,8.27
2024-01-29T13:27:53.966Z,8.80
2024-01-29T13:30:21.008Z,7.97
2024-01-29T13:32:47.900Z,7.97
2024-01-29T13:35:14.938Z,9.15
2024-01-29T13:37:42.584Z,6.82
2024-01-29T13:40:11.148Z,6.85
2024-01-29T13:42:38.020Z,5.32
2024-01-29T13:45:05.623Z,6.22
2024-01-29T13:47:32.597Z,6.65
2024-01-29T13:50:02.803Z,5.35
2024-01-29T13:52:29.623Z,7.78
2024-01-29T13:54:56.643Z,5.60
2024-01-29T13:57:24.947Z,4.78
2024-01-29T13:59:52.662Z,5.47
2024-01-29T14:02:19.610Z,5.90
2024-01-29T14:04:46.612Z,5.78
2024-01-29T14:07:13.750Z,6.07
2024-01-29T14:09:40.605Z,5.70
2024-01-29T14:12:07.778Z,7.65
2024-01-29T14:14:41.064Z,6.22
2024-01-29T14:17:13.687Z,6.32
2024-01-29T14:19:41.636Z,6.63
2024-01-29T14:22:08.520Z,7.28
2024-01-29T14:24:35.401Z,7.00
2024-01-29T14:27:02.334Z,6.07
2024-01-29T14:29:29.089Z,7.78
2024-01-29T14:31:57.300Z,6.63
2024-01-29T14:34:25.015Z,7.00
2024-01-29T14:36:52.404Z,5.35
2024-01-29T14:39:21.936Z,6.68
2024-01-29T14:41:52.777Z,7.78
2024-01-29T14:44:19.714Z,8.45
2024-01-29T14:46:46.512Z,8.02
2024-01-29T14:49:15.132Z,11.02
2024-01-29T14:51:42.041Z,6.18
2024-01-29T14:54:09.686Z,6.53
2024-01-29T14:56:39.649Z,7.18
2024-01-29T14:59:09.978Z,10.20
2024-01-29T15:01:41.448Z,10.57
2024-01-29T15:04:12.947Z,8.23
2024-01-29T15:06:40.682Z,10.88
2024-01-29T15:09:09.154Z,10.48
2024-01-29T15:11:36.047Z,9.57
2024-01-29T15:14:04.286Z,10.07
2024-01-29T15:16:31.041Z,10.10
2024-01-29T15:18:57.861Z,9.25
2024-01-29T15:21:24.897Z,9.60
2024-01-29T15:23:53.568Z,10.40
2024-01-29T15:26:20.994Z,10.18
2024-01-29T15:28:47.841Z,12.40
2024-01-29T15:31:16.108Z,15.55
2024-01-29T15:33:46.261Z,14.68
2024-01-29T15:36:14.280Z,12.00
2024-01-29T15:38:41.159Z,12.48
2024-01-29T15:41:16.856Z,10.85
2024-01-29T15:43:44.092Z,11.90
2024-01-29T15:46:11.327Z,10.38
2024-01-29T15:48:39.612Z,14.70
2024-01-29T15:51:06.547Z,14.18
2024-01-29T15:53:34.025Z,15.18
2024-01-29T15:56:00.757Z,15.40
2024-01-29T15:58:27.591Z,16.23
2024-01-29T16:00:54.532Z,17.95
2024-01-29T16:03:21.416Z,15.23
2024-01-29T16:05:48.253Z,17.58
2024-01-29T16:08:15.492Z,15.23
2024-01-29T16:10:42.658Z,12.00
2024-01-29T16:13:09.626Z,13.73
2024-01-29T16:15:36.625Z,11.85
2024-01-29T16:18:07.955Z,12.40
2024-01-29T16:20:35.404Z,13.52
2024-01-29T16:23:05.675Z,12.15
2024-01-29T16:25:32.510Z,13.75
2024-01-29T16:27:59.393Z,12.93
2024-01-29T16:30:26.282Z,12.25
2024-01-29T16:32:53.757Z,13.45
2024-01-29T16:35:20.666Z,15.68
2024-01-29T16:37:47.607Z,13.13
2024-01-29T16:40:15.070Z,14.65
2024-01-29T16:42:42.066Z,14.95
2024-01-29T16:45:09.087Z,14.65
2024-01-29T16:47:41.745Z,15.88
2024-01-29T16:50:09.079Z,16.67
2024-01-29T16:52:36.140Z,19.77
2024-01-29T16:55:03.326Z,19.33
2024-01-29T16:57:30.202Z,19.02
2024-01-29T16:59:56.994Z,19.33
2024-01-29T17:02:24.998Z,19.75
2024-01-29T17:04:52.046Z,18.63
2024-01-29T17:07:19.031Z,27.15
2024-01-29T17:09:45.925Z,34.07
2024-01-29T17:12:12.765Z,36.85
2024-01-29T17:14:39.603Z,29.63
2024-01-29T17:17:08.041Z,28.17
2024-01-29T17:19:35.949Z,28.30
2024-01-29T17:22:03.004Z,36.57
2024-01-29T17:24:30.034Z,32.30
2024-01-29T17:26:57.129Z,31.42
2024-01-29T17:29:24.261Z,31.30
2024-01-29T17:31:51.013Z,27.20
2024-01-29T17:34:17.860Z,26.98
2024-01-29T17:36:44.731Z,26.60
2024-01-29T17:39:11.679Z,28.55
2024-01-29T17:41:39.104Z,25.90
2024-01-29T17:44:06.537Z,32.35
2024-01-29T17:46:33.394Z,30.80
2024-01-29T17:49:00.391Z,27.42
2024-01-29T17:51:27.486Z,29.67
2024-01-29T17:53:54.322Z,30.77
2024-01-29T17:56:21.161Z,34.15
2024-01-29T17:58:53.242Z,34.40
2024-01-29T18:01:20.077Z,36.10
2024-01-29T18:03:46.891Z,34.45
2024-01-29T18:06:13.638Z,40.17
2024-01-29T18:08:41.129Z,34.00
2024-01-29T18:11:07.854Z,37.87
2024-01-29T18:13:34.524Z,26.42
2024-01-29T18:16:01.800Z,22.58
2024-01-29T18:18:28.625Z,23.30
2024-01-29T18:20:55.507Z,20.70
2024-01-29T18:23:22.410Z,19.20
2024-01-29T18:25:49.125Z,17.63
2024-01-29T18:28:16.154Z,20.02
2024-01-29T18:30:43.124Z,22.80
2024-01-29T18:33:09.997Z,21.30
2024-01-29T18:35:36.787Z,24.17
2024-01-29T18:38:03.831Z,25.15
2024-01-29T18:40:34.957Z,34.92
2024-01-29T18:43:02.320Z,39.30
2024-01-29T18:45:29.214Z,45.50
2024-01-29T18:47:56.015Z,35.67
2024-01-29T18:50:23.845Z,28.83
2024-01-29T18:52:50.884Z,40.70
2024-01-29T18:55:18.659Z,27.52
2024-01-29T18:57:46.070Z,18.50
2024-01-29T19:00:15.646Z,21.87
2024-01-29T19:02:44.558Z,19.27
2024-01-29T19:05:11.882Z,16.50
2024-01-29T19:07:39.050Z,18.00
2024-01-29T19:10:11.367Z,17.08
2024-01-29T19:12:40.937Z,17.17
2024-01-29T19:15:08.739Z,14.50
2024-01-29T19:17:35.868Z,17.02
2024-01-29T19:20:02.716Z,15.18
2024-01-29T19:22:30.663Z,20.55
2024-01-29T19:25:01.355Z,17.33
2024-01-29T19:27:30.083Z,20.42
2024-01-29T19:29:56.821Z,26.92
2024-01-29T19:32:23.653Z,30.02
2024-01-29T19:34:52.800Z,27.30
2024-01-29T19:37:21.521Z,23.40
2024-01-29T19:39:49.334Z,25.65
2024-01-29T19:42:18.370Z,27.65
2024-01-29T19:44:45.645Z,30.38
2024-01-29T19:47:12.316Z,29.17
2024-01-29T19:49:39.761Z,28.77
2024-01-29T19:52:07.007Z,27.88
2024-01-29T19:54:34.455Z,28.58
2024-01-29T19:57:01.536Z,27.02
2024-01-29T19:59:28.346Z,30.33
2024-01-29T20:01:55.204Z,35.93
2024-01-29T20:04:24.317Z,34.88
2024-01-29T20:06:52.024Z,32.58
2024-01-29T20:09:19.085Z,24.27
2024-01-29T20:11:45.816Z,25.40
2024-01-29T20:14:12.665Z,22.57
2024-01-29T20:16:39.547Z,20.48
2024-01-29T20:19:06.546Z,25.92
2024-01-29T20:21:33.661Z,47.42
2024-01-29T20:24:00.533Z,51.10
2024-01-29T20:26:27.346Z,52.00
2024-01-29T20:28:54.314Z,46.00
2024-01-29T20:31:25.690Z,44.58
2024-01-29T20:33:54.387Z,39.75
2024-01-29T20:36:25.020Z,36.95
2024-01-29T20:38:52.033Z,34.93
2024-01-29T20:41:32.678Z,41.28
2024-01-29T20:44:07.734Z,38.05
2024-01-29T20:46:35.160Z,36.28
2024-01-29T20:49:04.800Z,37.83
2024-01-29T20:51:31.829Z,40.80
2024-01-29T20:53:58.939Z,39.80
2024-01-29T20:56:26.192Z,36.58
2024-01-29T20:58:53.469Z,35.65
2024-01-29T21:01:20.361Z,36.25
2024-01-29T21:03:47.417Z,35.77
2024-01-29T21:06:14.267Z,36.53
2024-01-29T21:08:42.536Z,32.92
2024-01-29T21:11:09.223Z,38.28
2024-01-29T21:13:36.078Z,36.45
2024-01-29T21:16:02.912Z,44.00
2024-01-29T21:18:29.832Z,46.95
2024-01-29T21:20:56.751Z,45.40
2024-01-29T21:23:23.759Z,46.30
2024-01-29T21:25:50.576Z,43.42
2024-01-29T21:28:17.885Z,44.47
2024-01-29T21:30:45.313Z,45.53
2024-01-29T21:33:13.791Z,44.72
2024-01-29T21:35:40.603Z,44.40
2024-01-29T21:38:07.396Z,44.67
2024-01-29T21:40:34.402Z,46.97
2024-01-29T21:43:01.431Z,52.85
2024-01-29T21:45:28.274Z,62.15
2024-01-29T21:47:55.279Z,60.97
2024-01-29T21:50:22.152Z,59.72
2024-01-29T21:52:48.828Z,56.20
2024-01-29T21:55:16.467Z,51.55
2024-01-29T21:57:44.975Z,52.00
2024-01-29T22:00:12.531Z,53.72
2024-01-29T22:02:39.351Z,53.60
2024-01-29T22:05:06.294Z,52.70
2024-01-29T22:07:33.266Z,55.55
2024-01-29T22:10:00.255Z,53.60
2024-01-29T22:12:27.831Z,52.92
2024-01-29T22:14:54.805Z,52.58
2024-01-29T22:17:22.107Z,54.27
2024-01-29T22:19:49.191Z,50.75
2024-01-29T22:22:16.108Z,48.60
2024-01-29T22:24:43.120Z,46.33
2024-01-29T22:27:11.458Z,47.75
2024-01-29T22:29:40.309Z,47.47
2024-01-29T22:32:07.658Z,50.78
2024-01-29T22:34:34.929Z,43.15
2024-01-29T22:37:01.737Z,49.88
2024-01-29T22:39:28.517Z,48.13
2024-01-29T22:41:55.298Z,49.87
2024-01-29T22:44:23.376Z,63.97
2024-01-29T22:46:50.099Z,57.08
2024-01-29T22:49:17.098Z,58.25
2024-01-29T22:51:45.392Z,55.33
2024-01-29T22:54:12.614Z,58.77
2024-01-29T22:56:41.148Z,60.10
2024-01-29T22:59:07.968Z,60.22
2024-01-29T23:01:35.704Z,59.25
2024-01-29T23:04:03.239Z,56.72
2024-01-29T23:06:30.438Z,53.87
2024-01-29T23:08:57.219Z,51.90
2024-01-29T23:11:24.079Z,49.88
2024-01-29T23:13:50.902Z,54.20
2024-01-29T23:16:17.819Z,50.90
2024-01-29T23:18:45.964Z,50.30
2024-01-29T23:21:13.000Z,48.80
2024-01-29T23:23:39.853Z,48.15
2024-01-29T23:26:06.698Z,45.25
2024-01-29T23:28:35.486Z,53.60
2024-01-29T23:31:02.622Z,60.67
2024-01-29T23:33:29.617Z,60.13
2024-01-29T23:35:56.606Z,70.65
2024-01-29T23:38:23.983Z,67.85
2024-01-29T23:40:50.871Z,54.30
2024-01-29T23:43:17.861Z,55.60
2024-01-29T23:45:44.822Z,57.53
2024-01-29T23:48:11.717Z,53.60
2024-01-29T23:50:38.583Z,46.95
2024-01-29T23:53:06.592Z,44.22
2024-01-29T23:55:33.561Z,37.93
2024-01-29T23:58:00.506Z,37.92
